PWSweather.com
Personal Weather Stations
Station Observations
IBAYERNP4
Munich, PlieningDE 85652

MunichPlieningDE 85652

Lat: 48.19916153, Lon: 11.79794312

Elevation: 504

Station Type: Davis Vantage Pro2

http://wetterstation-pliening.info

High Low Average
Temperature 56.2°F13.4°C 39.3°F4.1°C 47.2°F8.4°C
Dew Point 40.5°F4.7°C 30.6°F-0.8°C 36.0°F2.2°C
Winds 15.0 mph 24.1 kmh Calm Calm 3.0 mph ENE4.8 kmh ENE
Wind Gusts 16.0 mph25.7 kmh -- 7.0 mph11.3 kmh
Humidity 84% 43% 67%
Pressure 30.42 in1030.1 mb 30.23 in1023.7 mb -
Precipitation 0.00 in0.0 mm - -
Hour Temp Dew Point Humidity Winds Wind Gusts Pressure Precip Precip Rate Daily Precip Total
12:00 AM 46.0°F7.8°C 40.1°F4.5°C 80% Calm Calm -- 30.42 in1030.1 mb 0.00 in0.0 mm 0.00 in/hr0.0 mm/hr 0.00 in0.0 mm
12:05 AM 46.0°F7.8°C 40.1°F4.5°C 80% Calm Calm -- 30.42 in1030.1 mb 0.00 in0.0 mm 0.00 in/hr0.0 mm/hr 0.00 in0.0 mm
12:10 AM 46.0°F7.8°C 40.5°F4.7°C 81% Calm Calm -- 30.42 in1030.1 mb 0.00 in0.0 mm 0.00 in/hr0.0 mm/hr 0.00 in0.0 mm
12:15 AM 45.9°F7.7°C 39.7°F4.3°C 79% 1.0 mph N1.6 kmh N 3.0 mph4.8 kmh 30.41 in1029.8 mb 0.00 in0.0 mm 0.00 in/hr0.0 mm/hr 0.00 in0.0 mm
12:20 AM 46.0°F7.8°C 39.8°F4.3°C 79% Calm Calm 2.0 mph3.2 kmh 30.41 in1029.8 mb 0.00 in0.0 mm 0.00 in/hr0.0 mm/hr 0.00 in0.0 mm
12:25 AM 46.1°F7.8°C 39.9°F4.4°C 79% Calm Calm 1.0 mph1.6 kmh 30.41 in1029.8 mb 0.00 in0.0 mm 0.00 in/hr0.0 mm/hr 0.00 in0.0 mm
12:30 AM 46.1°F7.8°C 39.9°F4.4°C 79% Calm Calm -- 30.41 in1029.8 mb 0.00 in0.0 mm 0.00 in/hr0.0 mm/hr 0.00 in0.0 mm
12:35 AM 46.1°F7.8°C 39.9°F4.4°C 79% Calm Calm -- 30.41 in1029.8 mb 0.00 in0.0 mm 0.00 in/hr0.0 mm/hr 0.00 in0.0 mm
12:40 AM 45.9°F7.7°C 39.4°F4.1°C 78% Calm Calm 1.0 mph1.6 kmh 30.41 in1029.8 mb 0.00 in0.0 mm 0.00 in/hr0.0 mm/hr 0.00 in0.0 mm
12:45 AM 45.9°F7.7°C 39.7°F4.3°C 79% Calm Calm -- 30.41 in1029.8 mb 0.00 in0.0 mm 0.00 in/hr0.0 mm/hr 0.00 in0.0 mm
12:50 AM 45.8°F7.7°C 39.6°F4.2°C 79% Calm Calm -- 30.41 in1029.8 mb 0.00 in0.0 mm 0.00 in/hr0.0 mm/hr 0.00 in0.0 mm
12:55 AM 45.7°F7.6°C 39.2°F4.0°C 78% Calm Calm 1.0 mph1.6 kmh 30.41 in1029.8 mb 0.00 in0.0 mm 0.00 in/hr0.0 mm/hr 0.00 in0.0 mm
01:00 AM 45.8°F7.7°C 39.0°F3.9°C 77% Calm Calm 1.0 mph1.6 kmh 30.41 in1029.8 mb 0.00 in0.0 mm 0.00 in/hr0.0 mm/hr 0.00 in0.0 mm
01:05 AM 45.8°F7.7°C 38.6°F3.7°C 76% Calm Calm 1.0 mph1.6 kmh 30.41 in1029.8 mb 0.00 in0.0 mm 0.00 in/hr0.0 mm/hr 0.00 in0.0 mm
01:10 AM 45.8°F7.7°C 38.6°F3.7°C 76% Calm Calm 1.0 mph1.6 kmh 30.40 in1029.5 mb 0.00 in0.0 mm 0.00 in/hr0.0 mm/hr 0.00 in0.0 mm
01:15 AM 45.7°F7.6°C 38.5°F3.6°C 76% Calm Calm 3.0 mph4.8 kmh 30.40 in1029.5 mb 0.00 in0.0 mm 0.00 in/hr0.0 mm/hr 0.00 in0.0 mm
01:20 AM 45.7°F7.6°C 38.2°F3.4°C 75% Calm Calm 3.0 mph4.8 kmh 30.40 in1029.5 mb 0.00 in0.0 mm 0.00 in/hr0.0 mm/hr 0.00 in0.0 mm
01:25 AM 45.6°F7.6°C 37.7°F3.2°C 74% Calm Calm 6.0 mph9.7 kmh 30.40 in1029.5 mb 0.00 in0.0 mm 0.00 in/hr0.0 mm/hr 0.00 in0.0 mm
01:30 AM 45.7°F7.6°C 37.5°F3.1°C 73% 1.0 mph NE1.6 kmh NE 4.0 mph6.4 kmh 30.40 in1029.5 mb 0.00 in0.0 mm 0.00 in/hr0.0 mm/hr 0.00 in0.0 mm
01:35 AM 45.8°F7.7°C 37.9°F3.3°C 74% 1.0 mph NE1.6 kmh NE 3.0 mph4.8 kmh 30.39 in1029.1 mb 0.00 in0.0 mm 0.00 in/hr0.0 mm/hr 0.00 in0.0 mm
01:40 AM 45.8°F7.7°C 38.3°F3.5°C 75% Calm Calm 3.0 mph4.8 kmh 30.40 in1029.5 mb 0.00 in0.0 mm 0.00 in/hr0.0 mm/hr 0.00 in0.0 mm
01:45 AM 45.8°F7.7°C 38.3°F3.5°C 75% Calm Calm 4.0 mph6.4 kmh 30.40 in1029.5 mb 0.00 in0.0 mm 0.00 in/hr0.0 mm/hr 0.00 in0.0 mm
01:50 AM 45.7°F7.6°C 38.2°F3.4°C 75% 1.0 mph NE1.6 kmh NE 3.0 mph4.8 kmh 30.39 in1029.1 mb 0.00 in0.0 mm 0.00 in/hr0.0 mm/hr 0.00 in0.0 mm
01:55 AM 45.7°F7.6°C 38.2°F3.4°C 75% Calm Calm 2.0 mph3.2 kmh 30.39 in1029.1 mb 0.00 in0.0 mm 0.00 in/hr0.0 mm/hr 0.00 in0.0 mm
02:00 AM 45.7°F7.6°C 38.2°F3.4°C 75% Calm Calm 1.0 mph1.6 kmh 30.40 in1029.5 mb 0.00 in0.0 mm 0.00 in/hr0.0 mm/hr 0.00 in0.0 mm
02:05 AM 45.6°F7.6°C 38.1°F3.4°C 75% Calm Calm -- 30.40 in1029.5 mb 0.00 in0.0 mm 0.00 in/hr0.0 mm/hr 0.00 in0.0 mm
02:10 AM 45.6°F7.6°C 38.4°F3.6°C 76% Calm Calm -- 30.40 in1029.5 mb 0.00 in0.0 mm 0.00 in/hr0.0 mm/hr 0.00 in0.0 mm
02:15 AM 45.6°F7.6°C 38.8°F3.8°C 77% Calm Calm -- 30.39 in1029.1 mb 0.00 in0.0 mm 0.00 in/hr0.0 mm/hr 0.00 in0.0 mm
02:20 AM 45.5°F7.5°C 39.0°F3.9°C 78% Calm Calm 1.0 mph1.6 kmh 30.39 in1029.1 mb 0.00 in0.0 mm 0.00 in/hr0.0 mm/hr 0.00 in0.0 mm
02:25 AM 45.3°F7.4°C 39.1°F3.9°C 79% 3.0 mph NE4.8 kmh NE 3.0 mph4.8 kmh 30.39 in1029.1 mb 0.00 in0.0 mm 0.00 in/hr0.0 mm/hr 0.00 in0.0 mm
02:30 AM 45.1°F7.3°C 38.6°F3.7°C 78% 2.0 mph NE3.2 kmh NE 5.0 mph8.0 kmh 30.39 in1029.1 mb 0.00 in0.0 mm 0.00 in/hr0.0 mm/hr 0.00 in0.0 mm
02:35 AM 45.0°F7.2°C 37.5°F3.1°C 75% 1.0 mph NE1.6 kmh NE 6.0 mph9.7 kmh 30.39 in1029.1 mb 0.00 in0.0 mm 0.00 in/hr0.0 mm/hr 0.00 in0.0 mm
02:40 AM 45.0°F7.2°C 37.2°F2.9°C 74% 1.0 mph NE1.6 kmh NE 5.0 mph8.0 kmh 30.39 in1029.1 mb 0.00 in0.0 mm 0.00 in/hr0.0 mm/hr 0.00 in0.0 mm
02:45 AM 45.0°F7.2°C 37.2°F2.9°C 74% Calm Calm 1.0 mph1.6 kmh 30.39 in1029.1 mb 0.00 in0.0 mm 0.00 in/hr0.0 mm/hr 0.00 in0.0 mm
02:50 AM 45.0°F7.2°C 37.2°F2.9°C 74% Calm Calm -- 30.39 in1029.1 mb 0.00 in0.0 mm 0.00 in/hr0.0 mm/hr 0.00 in0.0 mm
02:55 AM 45.0°F7.2°C 37.5°F3.1°C 75% Calm Calm 1.0 mph1.6 kmh 30.39 in1029.1 mb 0.00 in0.0 mm 0.00 in/hr0.0 mm/hr 0.00 in0.0 mm
03:00 AM 45.0°F7.2°C 37.8°F3.2°C 76% Calm Calm -- 30.39 in1029.1 mb 0.00 in0.0 mm 0.00 in/hr0.0 mm/hr 0.00 in0.0 mm
03:05 AM 44.9°F7.2°C 38.1°F3.4°C 77% Calm Calm -- 30.38 in1028.8 mb 0.00 in0.0 mm 0.00 in/hr0.0 mm/hr 0.00 in0.0 mm
03:10 AM 44.8°F7.1°C 38.0°F3.3°C 77% Calm Calm -- 30.38 in1028.8 mb 0.00 in0.0 mm 0.00 in/hr0.0 mm/hr 0.00 in0.0 mm
03:15 AM 44.7°F7.1°C 38.2°F3.4°C 78% Calm Calm -- 30.38 in1028.8 mb 0.00 in0.0 mm 0.00 in/hr0.0 mm/hr 0.00 in0.0 mm
03:20 AM 44.5°F6.9°C 38.3°F3.5°C 79% Calm Calm 1.0 mph1.6 kmh 30.38 in1028.8 mb 0.00 in0.0 mm 0.00 in/hr0.0 mm/hr 0.00 in0.0 mm
03:25 AM 44.4°F6.9°C 38.6°F3.7°C 80% Calm Calm 2.0 mph3.2 kmh 30.38 in1028.8 mb 0.00 in0.0 mm 0.00 in/hr0.0 mm/hr 0.00 in0.0 mm
03:30 AM 44.2°F6.8°C 38.1°F3.4°C 79% Calm Calm 4.0 mph6.4 kmh 30.38 in1028.8 mb 0.00 in0.0 mm 0.00 in/hr0.0 mm/hr 0.00 in0.0 mm
03:35 AM 44.1°F6.7°C 38.0°F3.3°C 79% Calm Calm 1.0 mph1.6 kmh 30.38 in1028.8 mb 0.00 in0.0 mm 0.00 in/hr0.0 mm/hr 0.00 in0.0 mm
03:40 AM 44.1°F6.7°C 38.3°F3.5°C 80% Calm Calm -- 30.38 in1028.8 mb 0.00 in0.0 mm 0.00 in/hr0.0 mm/hr 0.00 in0.0 mm
03:45 AM 44.1°F6.7°C 38.3°F3.5°C 80% Calm Calm 1.0 mph1.6 kmh 30.38 in1028.8 mb 0.00 in0.0 mm 0.00 in/hr0.0 mm/hr 0.00 in0.0 mm
03:50 AM 43.9°F6.6°C 38.4°F3.6°C 81% 2.0 mph NE3.2 kmh NE 3.0 mph4.8 kmh 30.38 in1028.8 mb 0.00 in0.0 mm 0.00 in/hr0.0 mm/hr 0.00 in0.0 mm
03:55 AM 43.6°F6.4°C 38.1°F3.4°C 81% Calm Calm 5.0 mph8.0 kmh 30.37 in1028.4 mb 0.00 in0.0 mm 0.00 in/hr0.0 mm/hr 0.00 in0.0 mm
04:00 AM 43.3°F6.3°C 37.5°F3.1°C 80% 3.0 mph N4.8 kmh N 7.0 mph11.3 kmh 30.37 in1028.4 mb 0.00 in0.0 mm 0.00 in/hr0.0 mm/hr 0.00 in0.0 mm
04:05 AM 43.2°F6.2°C 37.4°F3.0°C 80% 6.0 mph N9.7 kmh N 6.0 mph9.7 kmh 30.38 in1028.8 mb 0.00 in0.0 mm 0.00 in/hr0.0 mm/hr 0.00 in0.0 mm
04:10 AM 43.1°F6.2°C 37.3°F2.9°C 80% Calm Calm 7.0 mph11.3 kmh 30.38 in1028.8 mb 0.00 in0.0 mm 0.00 in/hr0.0 mm/hr 0.00 in0.0 mm
04:15 AM 43.0°F6.1°C 37.5°F3.1°C 81% Calm Calm 2.0 mph3.2 kmh 30.38 in1028.8 mb 0.00 in0.0 mm 0.00 in/hr0.0 mm/hr 0.00 in0.0 mm
04:20 AM 42.7°F5.9°C 36.9°F2.7°C 80% 6.0 mph NNE9.7 kmh NNE 7.0 mph11.3 kmh 30.37 in1028.4 mb 0.00 in0.0 mm 0.00 in/hr0.0 mm/hr 0.00 in0.0 mm
04:25 AM 42.4°F5.8°C 36.6°F2.6°C 80% 4.0 mph NNE6.4 kmh NNE 9.0 mph14.5 kmh 30.37 in1028.4 mb 0.00 in0.0 mm 0.00 in/hr0.0 mm/hr 0.00 in0.0 mm
04:30 AM 42.4°F5.8°C 36.6°F2.6°C 80% 3.0 mph NE4.8 kmh NE 6.0 mph9.7 kmh 30.37 in1028.4 mb 0.00 in0.0 mm 0.00 in/hr0.0 mm/hr 0.00 in0.0 mm
04:35 AM 42.3°F5.7°C 36.8°F2.7°C 81% 2.0 mph N3.2 kmh N 10.0 mph16.1 kmh 30.37 in1028.4 mb 0.00 in0.0 mm 0.00 in/hr0.0 mm/hr 0.00 in0.0 mm
04:40 AM 42.2°F5.7°C 36.7°F2.6°C 81% 5.0 mph N8.0 kmh N 6.0 mph9.7 kmh 30.37 in1028.4 mb 0.00 in0.0 mm 0.00 in/hr0.0 mm/hr 0.00 in0.0 mm
04:45 AM 42.1°F5.6°C 36.6°F2.6°C 81% 3.0 mph NNE4.8 kmh NNE 6.0 mph9.7 kmh 30.37 in1028.4 mb 0.00 in0.0 mm 0.00 in/hr0.0 mm/hr 0.00 in0.0 mm
04:50 AM 42.0°F5.6°C 36.9°F2.7°C 82% 3.0 mph NNE4.8 kmh NNE 5.0 mph8.0 kmh 30.37 in1028.4 mb 0.00 in0.0 mm 0.00 in/hr0.0 mm/hr 0.00 in0.0 mm
05:00 AM 41.8°F5.4°C 36.7°F2.6°C 82% 7.0 mph NE11.3 kmh NE 4.0 mph6.4 kmh 30.37 in1028.4 mb 0.00 in0.0 mm 0.00 in/hr0.0 mm/hr 0.00 in0.0 mm
05:05 AM 41.8°F5.4°C 36.7°F2.6°C 82% 4.0 mph NNE6.4 kmh NNE 7.0 mph11.3 kmh 30.37 in1028.4 mb 0.00 in0.0 mm 0.00 in/hr0.0 mm/hr 0.00 in0.0 mm
05:10 AM 41.8°F5.4°C 36.7°F2.6°C 82% 2.0 mph NNE3.2 kmh NNE 6.0 mph9.7 kmh 30.37 in1028.4 mb 0.00 in0.0 mm 0.00 in/hr0.0 mm/hr 0.00 in0.0 mm
05:15 AM 41.7°F5.4°C 36.9°F2.7°C 83% 3.0 mph NNE4.8 kmh NNE 5.0 mph8.0 kmh 30.37 in1028.4 mb 0.00 in0.0 mm 0.00 in/hr0.0 mm/hr 0.00 in0.0 mm
05:20 AM 41.6°F5.3°C 36.8°F2.7°C 83% 2.0 mph NNE3.2 kmh NNE 6.0 mph9.7 kmh 30.37 in1028.4 mb 0.00 in0.0 mm 0.00 in/hr0.0 mm/hr 0.00 in0.0 mm
05:25 AM 41.6°F5.3°C 36.8°F2.7°C 83% 2.0 mph NE3.2 kmh NE 5.0 mph8.0 kmh 30.37 in1028.4 mb 0.00 in0.0 mm 0.00 in/hr0.0 mm/hr 0.00 in0.0 mm
05:30 AM 41.6°F5.3°C 36.8°F2.7°C 83% Calm Calm 5.0 mph8.0 kmh 30.37 in1028.4 mb 0.00 in0.0 mm 0.00 in/hr0.0 mm/hr 0.00 in0.0 mm
05:35 AM 41.6°F5.3°C 36.8°F2.7°C 83% 2.0 mph NNE3.2 kmh NNE 5.0 mph8.0 kmh 30.37 in1028.4 mb 0.00 in0.0 mm 0.00 in/hr0.0 mm/hr 0.00 in0.0 mm
05:40 AM 41.7°F5.4°C 36.9°F2.7°C 83% 1.0 mph NNE1.6 kmh NNE 4.0 mph6.4 kmh 30.37 in1028.4 mb 0.00 in0.0 mm 0.00 in/hr0.0 mm/hr 0.00 in0.0 mm
05:45 AM 41.7°F5.4°C 36.9°F2.7°C 83% 1.0 mph NE1.6 kmh NE 4.0 mph6.4 kmh 30.37 in1028.4 mb 0.00 in0.0 mm 0.00 in/hr0.0 mm/hr 0.00 in0.0 mm
05:50 AM 41.8°F5.4°C 37.0°F2.8°C 83% 5.0 mph NE8.0 kmh NE 6.0 mph9.7 kmh 30.38 in1028.8 mb 0.00 in0.0 mm 0.00 in/hr0.0 mm/hr 0.00 in0.0 mm
05:55 AM 41.8°F5.4°C 37.0°F2.8°C 83% 4.0 mph NE6.4 kmh NE 6.0 mph9.7 kmh 30.38 in1028.8 mb 0.00 in0.0 mm 0.00 in/hr0.0 mm/hr 0.00 in0.0 mm
06:00 AM 41.9°F5.5°C 37.1°F2.8°C 83% 4.0 mph NE6.4 kmh NE 5.0 mph8.0 kmh 30.38 in1028.8 mb 0.00 in0.0 mm 0.00 in/hr0.0 mm/hr 0.00 in0.0 mm
06:05 AM 41.9°F5.5°C 37.1°F2.8°C 83% 5.0 mph NE8.0 kmh NE 6.0 mph9.7 kmh 30.38 in1028.8 mb 0.00 in0.0 mm 0.00 in/hr0.0 mm/hr 0.00 in0.0 mm
06:10 AM 42.0°F5.6°C 37.5°F3.1°C 84% 4.0 mph NNE6.4 kmh NNE 6.0 mph9.7 kmh 30.38 in1028.8 mb 0.00 in0.0 mm 0.00 in/hr0.0 mm/hr 0.00 in0.0 mm
06:15 AM 42.1°F5.6°C 37.6°F3.1°C 84% 5.0 mph NNE8.0 kmh NNE 5.0 mph8.0 kmh 30.38 in1028.8 mb 0.00 in0.0 mm 0.00 in/hr0.0 mm/hr 0.00 in0.0 mm
06:20 AM 42.3°F5.7°C 37.8°F3.2°C 84% 4.0 mph NE6.4 kmh NE 5.0 mph8.0 kmh 30.38 in1028.8 mb 0.00 in0.0 mm 0.00 in/hr0.0 mm/hr 0.00 in0.0 mm
06:25 AM 42.4°F5.8°C 37.6°F3.1°C 83% 6.0 mph NNE9.7 kmh NNE 7.0 mph11.3 kmh 30.38 in1028.8 mb 0.00 in0.0 mm 0.00 in/hr0.0 mm/hr 0.00 in0.0 mm
06:30 AM 42.5°F5.8°C 38.0°F3.3°C 84% 2.0 mph NNE3.2 kmh NNE 7.0 mph11.3 kmh 30.38 in1028.8 mb 0.00 in0.0 mm 0.00 in/hr0.0 mm/hr 0.00 in0.0 mm
06:35 AM 42.7°F5.9°C 37.9°F3.3°C 83% 6.0 mph NE9.7 kmh NE 7.0 mph11.3 kmh 30.37 in1028.4 mb 0.00 in0.0 mm 0.00 in/hr0.0 mm/hr 0.00 in0.0 mm
06:40 AM 42.8°F6.0°C 38.3°F3.5°C 84% 3.0 mph NE4.8 kmh NE 9.0 mph14.5 kmh 30.37 in1028.4 mb 0.00 in0.0 mm 0.00 in/hr0.0 mm/hr 0.00 in0.0 mm
06:45 AM 42.9°F6.1°C 38.0°F3.3°C 83% 7.0 mph NE11.3 kmh NE 11.0 mph17.7 kmh 30.37 in1028.4 mb 0.00 in0.0 mm 0.00 in/hr0.0 mm/hr 0.00 in0.0 mm
06:50 AM 42.9°F6.1°C 38.4°F3.6°C 84% 4.0 mph ENE6.4 kmh ENE 11.0 mph17.7 kmh 30.37 in1028.4 mb 0.00 in0.0 mm 0.00 in/hr0.0 mm/hr 0.00 in0.0 mm
06:55 AM 43.0°F6.1°C 38.1°F3.4°C 83% 4.0 mph NE6.4 kmh NE 11.0 mph17.7 kmh 30.37 in1028.4 mb 0.00 in0.0 mm 0.00 in/hr0.0 mm/hr 0.00 in0.0 mm
07:00 AM 43.3°F6.3°C 38.4°F3.6°C 83% 2.0 mph NE3.2 kmh NE 9.0 mph14.5 kmh 30.37 in1028.4 mb 0.00 in0.0 mm 0.00 in/hr0.0 mm/hr 0.00 in0.0 mm
07:05 AM 43.7°F6.5°C 38.8°F3.8°C 83% 5.0 mph NE8.0 kmh NE 7.0 mph11.3 kmh 30.37 in1028.4 mb 0.00 in0.0 mm 0.00 in/hr0.0 mm/hr 0.00 in0.0 mm
07:10 AM 44.3°F6.8°C 39.4°F4.1°C 83% 6.0 mph NE9.7 kmh NE 10.0 mph16.1 kmh 30.37 in1028.4 mb 0.00 in0.0 mm 0.00 in/hr0.0 mm/hr 0.00 in0.0 mm
07:15 AM 44.7°F7.1°C 39.2°F4.0°C 81% 7.0 mph N11.3 kmh N 9.0 mph14.5 kmh 30.37 in1028.4 mb 0.00 in0.0 mm 0.00 in/hr0.0 mm/hr 0.00 in0.0 mm
07:20 AM 45.0°F7.2°C 39.2°F4.0°C 80% 7.0 mph NE11.3 kmh NE 11.0 mph17.7 kmh 30.37 in1028.4 mb 0.00 in0.0 mm 0.00 in/hr0.0 mm/hr 0.00 in0.0 mm
07:25 AM 44.8°F7.1°C 39.0°F3.9°C 80% 5.0 mph ENE8.0 kmh ENE 10.0 mph16.1 kmh 30.37 in1028.4 mb 0.00 in0.0 mm 0.00 in/hr0.0 mm/hr 0.00 in0.0 mm
07:30 AM 44.5°F6.9°C 39.0°F3.9°C 81% 4.0 mph E6.4 kmh E 8.0 mph12.9 kmh 30.37 in1028.4 mb 0.00 in0.0 mm 0.00 in/hr0.0 mm/hr 0.00 in0.0 mm
07:35 AM 44.2°F6.8°C 38.7°F3.7°C 81% 6.0 mph NE9.7 kmh NE 7.0 mph11.3 kmh 30.37 in1028.4 mb 0.00 in0.0 mm 0.00 in/hr0.0 mm/hr 0.00 in0.0 mm
07:40 AM 44.2°F6.8°C 38.4°F3.6°C 80% 4.0 mph NE6.4 kmh NE 11.0 mph17.7 kmh 30.36 in1028.1 mb 0.00 in0.0 mm 0.00 in/hr0.0 mm/hr 0.00 in0.0 mm
07:45 AM 44.2°F6.8°C 38.7°F3.7°C 81% 4.0 mph NE6.4 kmh NE 11.0 mph17.7 kmh 30.36 in1028.1 mb 0.00 in0.0 mm 0.00 in/hr0.0 mm/hr 0.00 in0.0 mm
07:50 AM 44.4°F6.9°C 38.9°F3.8°C 81% 3.0 mph NNE4.8 kmh NNE 9.0 mph14.5 kmh 30.37 in1028.4 mb 0.00 in0.0 mm 0.00 in/hr0.0 mm/hr 0.00 in0.0 mm
07:55 AM 44.5°F6.9°C 39.0°F3.9°C 81% 5.0 mph NE8.0 kmh NE 9.0 mph14.5 kmh 30.37 in1028.4 mb 0.00 in0.0 mm 0.00 in/hr0.0 mm/hr 0.00 in0.0 mm
08:00 AM 44.7°F7.1°C 39.2°F4.0°C 81% 3.0 mph NNE4.8 kmh NNE 9.0 mph14.5 kmh 30.36 in1028.1 mb 0.00 in0.0 mm 0.00 in/hr0.0 mm/hr 0.00 in0.0 mm
08:05 AM 44.8°F7.1°C 39.3°F4.1°C 81% 6.0 mph NE9.7 kmh NE 7.0 mph11.3 kmh 30.36 in1028.1 mb 0.00 in0.0 mm 0.00 in/hr0.0 mm/hr 0.00 in0.0 mm
08:10 AM 44.8°F7.1°C 39.0°F3.9°C 80% 6.0 mph NNE9.7 kmh NNE 10.0 mph16.1 kmh 30.36 in1028.1 mb 0.00 in0.0 mm 0.00 in/hr0.0 mm/hr 0.00 in0.0 mm
08:15 AM 44.9°F7.2°C 39.1°F3.9°C 80% 6.0 mph NNE9.7 kmh NNE 10.0 mph16.1 kmh 30.36 in1028.1 mb 0.00 in0.0 mm 0.00 in/hr0.0 mm/hr 0.00 in0.0 mm
08:20 AM 44.9°F7.2°C 38.7°F3.7°C 79% 5.0 mph NE8.0 kmh NE 11.0 mph17.7 kmh 30.36 in1028.1 mb 0.00 in0.0 mm 0.00 in/hr0.0 mm/hr 0.00 in0.0 mm
08:25 AM 45.0°F7.2°C 38.8°F3.8°C 79% 4.0 mph ENE6.4 kmh ENE 10.0 mph16.1 kmh 30.36 in1028.1 mb 0.00 in0.0 mm 0.00 in/hr0.0 mm/hr 0.00 in0.0 mm
08:30 AM 45.0°F7.2°C 39.2°F4.0°C 80% 5.0 mph NE8.0 kmh NE 10.0 mph16.1 kmh 30.36 in1028.1 mb 0.00 in0.0 mm 0.00 in/hr0.0 mm/hr 0.00 in0.0 mm
08:35 AM 45.0°F7.2°C 39.2°F4.0°C 80% 2.0 mph NE3.2 kmh NE 10.0 mph16.1 kmh 30.36 in1028.1 mb 0.00 in0.0 mm 0.00 in/hr0.0 mm/hr 0.00 in0.0 mm
08:40 AM 44.9°F7.2°C 38.7°F3.7°C 79% 5.0 mph NE8.0 kmh NE 7.0 mph11.3 kmh 30.36 in1028.1 mb 0.00 in0.0 mm 0.00 in/hr0.0 mm/hr 0.00 in0.0 mm
08:45 AM 44.6°F7.0°C 38.4°F3.6°C 79% 4.0 mph ENE6.4 kmh ENE 10.0 mph16.1 kmh 30.36 in1028.1 mb 0.00 in0.0 mm 0.00 in/hr0.0 mm/hr 0.00 in0.0 mm
08:50 AM 44.7°F7.1°C 38.9°F3.8°C 80% 5.0 mph ENE8.0 kmh ENE 7.0 mph11.3 kmh 30.36 in1028.1 mb 0.00 in0.0 mm 0.00 in/hr0.0 mm/hr 0.00 in0.0 mm
08:55 AM 44.7°F7.1°C 38.9°F3.8°C 80% 5.0 mph NE8.0 kmh NE 8.0 mph12.9 kmh 30.36 in1028.1 mb 0.00 in0.0 mm 0.00 in/hr0.0 mm/hr 0.00 in0.0 mm
09:00 AM 44.6°F7.0°C 38.4°F3.6°C 79% 3.0 mph E4.8 kmh E 7.0 mph11.3 kmh 30.36 in1028.1 mb 0.00 in0.0 mm 0.00 in/hr0.0 mm/hr 0.00 in0.0 mm
09:05 AM 44.6°F7.0°C 38.8°F3.8°C 80% 5.0 mph NE8.0 kmh NE 9.0 mph14.5 kmh 30.36 in1028.1 mb 0.00 in0.0 mm 0.00 in/hr0.0 mm/hr 0.00 in0.0 mm
09:10 AM 44.6°F7.0°C 38.4°F3.6°C 79% 6.0 mph NE9.7 kmh NE 6.0 mph9.7 kmh 30.36 in1028.1 mb 0.00 in0.0 mm 0.00 in/hr0.0 mm/hr 0.00 in0.0 mm
09:15 AM 44.6°F7.0°C 38.4°F3.6°C 79% 5.0 mph NE8.0 kmh NE 9.0 mph14.5 kmh 30.36 in1028.1 mb 0.00 in0.0 mm 0.00 in/hr0.0 mm/hr 0.00 in0.0 mm
09:20 AM 44.7°F7.1°C 38.9°F3.8°C 80% 3.0 mph E4.8 kmh E 7.0 mph11.3 kmh 30.36 in1028.1 mb 0.00 in0.0 mm 0.00 in/hr0.0 mm/hr 0.00 in0.0 mm
09:25 AM 44.9°F7.2°C 39.1°F3.9°C 80% 3.0 mph E4.8 kmh E 9.0 mph14.5 kmh 30.36 in1028.1 mb 0.00 in0.0 mm 0.00 in/hr0.0 mm/hr 0.00 in0.0 mm
09:30 AM 45.0°F7.2°C 39.2°F4.0°C 80% 3.0 mph E4.8 kmh E 6.0 mph9.7 kmh 30.36 in1028.1 mb 0.00 in0.0 mm 0.00 in/hr0.0 mm/hr 0.00 in0.0 mm
09:35 AM 45.1°F7.3°C 38.9°F3.8°C 79% 6.0 mph E9.7 kmh E 6.0 mph9.7 kmh 30.35 in1027.8 mb 0.00 in0.0 mm 0.00 in/hr0.0 mm/hr 0.00 in0.0 mm
09:40 AM 45.3°F7.4°C 39.1°F3.9°C 79% 6.0 mph E9.7 kmh E 7.0 mph11.3 kmh 30.35 in1027.8 mb 0.00 in0.0 mm 0.00 in/hr0.0 mm/hr 0.00 in0.0 mm
09:45 AM 45.5°F7.5°C 39.3°F4.1°C 79% 7.0 mph NE11.3 kmh NE 7.0 mph11.3 kmh 30.35 in1027.8 mb 0.00 in0.0 mm 0.00 in/hr0.0 mm/hr 0.00 in0.0 mm
09:50 AM 45.9°F7.7°C 39.7°F4.3°C 79% 5.0 mph NE8.0 kmh NE 6.0 mph9.7 kmh 30.35 in1027.8 mb 0.00 in0.0 mm 0.00 in/hr0.0 mm/hr 0.00 in0.0 mm
09:55 AM 46.0°F7.8°C 39.5°F4.2°C 78% 6.0 mph E9.7 kmh E 7.0 mph11.3 kmh 30.35 in1027.8 mb 0.00 in0.0 mm 0.00 in/hr0.0 mm/hr 0.00 in0.0 mm
10:00 AM 46.1°F7.8°C 39.2°F4.0°C 77% 5.0 mph NE8.0 kmh NE 9.0 mph14.5 kmh 30.35 in1027.8 mb 0.00 in0.0 mm 0.00 in/hr0.0 mm/hr 0.00 in0.0 mm
10:05 AM 46.1°F7.8°C 39.2°F4.0°C 77% 4.0 mph NNE6.4 kmh NNE 7.0 mph11.3 kmh 30.35 in1027.8 mb 0.00 in0.0 mm 0.00 in/hr0.0 mm/hr 0.00 in0.0 mm
10:10 AM 46.3°F7.9°C 39.1°F3.9°C 76% 4.0 mph ENE6.4 kmh ENE 8.0 mph12.9 kmh 30.35 in1027.8 mb 0.00 in0.0 mm 0.00 in/hr0.0 mm/hr 0.00 in0.0 mm
10:15 AM 46.6°F8.1°C 39.1°F3.9°C 75% 6.0 mph NE9.7 kmh NE 7.0 mph11.3 kmh 30.35 in1027.8 mb 0.00 in0.0 mm 0.00 in/hr0.0 mm/hr 0.00 in0.0 mm
10:20 AM 46.9°F8.3°C 39.7°F4.3°C 76% 3.0 mph ENE4.8 kmh ENE 6.0 mph9.7 kmh 30.34 in1027.4 mb 0.00 in0.0 mm 0.00 in/hr0.0 mm/hr 0.00 in0.0 mm
10:25 AM 47.3°F8.5°C 39.7°F4.3°C 75% 4.0 mph NE6.4 kmh NE 7.0 mph11.3 kmh 30.34 in1027.4 mb 0.00 in0.0 mm 0.00 in/hr0.0 mm/hr 0.00 in0.0 mm
10:30 AM 47.4°F8.6°C 39.5°F4.2°C 74% 5.0 mph NNE8.0 kmh NNE 9.0 mph14.5 kmh 30.34 in1027.4 mb 0.00 in0.0 mm 0.00 in/hr0.0 mm/hr 0.00 in0.0 mm
10:35 AM 47.7°F8.7°C 40.1°F4.5°C 75% 3.0 mph ENE4.8 kmh ENE 9.0 mph14.5 kmh 30.34 in1027.4 mb 0.00 in0.0 mm 0.00 in/hr0.0 mm/hr 0.00 in0.0 mm
10:40 AM 48.3°F9.1°C 40.0°F4.4°C 73% 6.0 mph N9.7 kmh N 9.0 mph14.5 kmh 30.33 in1027.1 mb 0.00 in0.0 mm 0.00 in/hr0.0 mm/hr 0.00 in0.0 mm
10:45 AM 48.9°F9.4°C 40.2°F4.6°C 72% 6.0 mph NE9.7 kmh NE 9.0 mph14.5 kmh 30.33 in1027.1 mb 0.00 in0.0 mm 0.00 in/hr0.0 mm/hr 0.00 in0.0 mm
10:50 AM 49.4°F9.7°C 39.2°F4.0°C 68% Calm Calm 7.0 mph11.3 kmh 30.33 in1027.1 mb 0.00 in0.0 mm 0.00 in/hr0.0 mm/hr 0.00 in0.0 mm
10:55 AM 49.7°F9.8°C 38.0°F3.3°C 64% 5.0 mph NNE8.0 kmh NNE 10.0 mph16.1 kmh 30.33 in1027.1 mb 0.00 in0.0 mm 0.00 in/hr0.0 mm/hr 0.00 in0.0 mm
11:00 AM 49.8°F9.9°C 37.7°F3.2°C 63% 5.0 mph ENE8.0 kmh ENE 7.0 mph11.3 kmh 30.33 in1027.1 mb 0.00 in0.0 mm 0.00 in/hr0.0 mm/hr 0.00 in0.0 mm
11:05 AM 50.1°F10.1°C 35.9°F2.2°C 58% 1.0 mph ENE1.6 kmh ENE 12.0 mph19.3 kmh 30.33 in1027.1 mb 0.00 in0.0 mm 0.00 in/hr0.0 mm/hr 0.00 in0.0 mm
11:10 AM 50.3°F10.2°C 36.5°F2.5°C 59% 4.0 mph NE6.4 kmh NE 7.0 mph11.3 kmh 30.33 in1027.1 mb 0.00 in0.0 mm 0.00 in/hr0.0 mm/hr 0.00 in0.0 mm
11:15 AM 51.0°F10.6°C 36.7°F2.6°C 58% 7.0 mph N11.3 kmh N 11.0 mph17.7 kmh 30.32 in1026.8 mb 0.00 in0.0 mm 0.00 in/hr0.0 mm/hr 0.00 in0.0 mm
11:20 AM 51.2°F10.7°C 35.5°F1.9°C 55% Calm Calm 10.0 mph16.1 kmh 30.32 in1026.8 mb 0.00 in0.0 mm 0.00 in/hr0.0 mm/hr 0.00 in0.0 mm
11:25 AM 51.3°F10.7°C 34.2°F1.2°C 52% 4.0 mph N6.4 kmh N 10.0 mph16.1 kmh 30.32 in1026.8 mb 0.00 in0.0 mm 0.00 in/hr0.0 mm/hr 0.00 in0.0 mm
11:31 AM 51.3°F10.7°C 36.5°F2.5°C 57% 3.0 mph NNE4.8 kmh NNE 9.0 mph14.5 kmh 30.32 in1026.8 mb 0.00 in0.0 mm 0.00 in/hr0.0 mm/hr 0.00 in0.0 mm
11:35 AM 51.7°F10.9°C 35.5°F1.9°C 54% 5.0 mph N8.0 kmh N 7.0 mph11.3 kmh 30.31 in1026.4 mb 0.00 in0.0 mm 0.00 in/hr0.0 mm/hr 0.00 in0.0 mm
11:40 AM 52.0°F11.1°C 35.4°F1.9°C 53% 3.0 mph NE4.8 kmh NE 13.0 mph20.9 kmh 30.31 in1026.4 mb 0.00 in0.0 mm 0.00 in/hr0.0 mm/hr 0.00 in0.0 mm
11:45 AM 52.3°F11.3°C 36.1°F2.3°C 54% Calm Calm 7.0 mph11.3 kmh 30.31 in1026.4 mb 0.00 in0.0 mm 0.00 in/hr0.0 mm/hr 0.00 in0.0 mm
11:50 AM 53.0°F11.7°C 37.7°F3.2°C 56% 5.0 mph NE8.0 kmh NE 7.0 mph11.3 kmh 30.31 in1026.4 mb 0.00 in0.0 mm 0.00 in/hr0.0 mm/hr 0.00 in0.0 mm
11:55 AM 53.4°F11.9°C 36.2°F2.3°C 52% 3.0 mph NW4.8 kmh NW 9.0 mph14.5 kmh 30.30 in1026.1 mb 0.00 in0.0 mm 0.00 in/hr0.0 mm/hr 0.00 in0.0 mm
12:00 PM 53.4°F11.9°C 35.2°F1.8°C 50% 7.0 mph NNE11.3 kmh NNE 11.0 mph17.7 kmh 30.30 in1026.1 mb 0.00 in0.0 mm 0.00 in/hr0.0 mm/hr 0.00 in0.0 mm
12:05 PM 53.3°F11.8°C 37.0°F2.8°C 54% 6.0 mph NNE9.7 kmh NNE 14.0 mph22.5 kmh 30.30 in1026.1 mb 0.00 in0.0 mm 0.00 in/hr0.0 mm/hr 0.00 in0.0 mm
12:10 PM 53.2°F11.8°C 35.0°F1.7°C 50% 5.0 mph N8.0 kmh N 12.0 mph19.3 kmh 30.30 in1026.1 mb 0.00 in0.0 mm 0.00 in/hr0.0 mm/hr 0.00 in0.0 mm
12:15 PM 52.6°F11.4°C 34.9°F1.6°C 51% 4.0 mph NE6.4 kmh NE 11.0 mph17.7 kmh 30.30 in1026.1 mb 0.00 in0.0 mm 0.00 in/hr0.0 mm/hr 0.00 in0.0 mm
12:20 PM 52.2°F11.2°C 36.9°F2.7°C 56% 6.0 mph NE9.7 kmh NE 10.0 mph16.1 kmh 30.30 in1026.1 mb 0.00 in0.0 mm 0.00 in/hr0.0 mm/hr 0.00 in0.0 mm
12:25 PM 52.3°F11.3°C 37.5°F3.1°C 57% 11.0 mph NNE17.7 kmh NNE 16.0 mph25.7 kmh 30.30 in1026.1 mb 0.00 in0.0 mm 0.00 in/hr0.0 mm/hr 0.00 in0.0 mm
12:30 PM 51.8°F11.0°C 37.0°F2.8°C 57% 7.0 mph NE11.3 kmh NE 15.0 mph24.1 kmh 30.30 in1026.1 mb 0.00 in0.0 mm 0.00 in/hr0.0 mm/hr 0.00 in0.0 mm
12:35 PM 51.4°F10.8°C 36.2°F2.3°C 56% 10.0 mph NE16.1 kmh NE 14.0 mph22.5 kmh 30.30 in1026.1 mb 0.00 in0.0 mm 0.00 in/hr0.0 mm/hr 0.00 in0.0 mm
12:40 PM 50.8°F10.4°C 36.1°F2.3°C 57% 6.0 mph NNE9.7 kmh NNE 13.0 mph20.9 kmh 30.30 in1026.1 mb 0.00 in0.0 mm 0.00 in/hr0.0 mm/hr 0.00 in0.0 mm
12:45 PM 50.7°F10.4°C 36.0°F2.2°C 57% 9.0 mph NNE14.5 kmh NNE 12.0 mph19.3 kmh 30.30 in1026.1 mb 0.00 in0.0 mm 0.00 in/hr0.0 mm/hr 0.00 in0.0 mm
12:50 PM 50.8°F10.4°C 36.5°F2.5°C 58% 5.0 mph NE8.0 kmh NE 10.0 mph16.1 kmh 30.30 in1026.1 mb 0.00 in0.0 mm 0.00 in/hr0.0 mm/hr 0.00 in0.0 mm
12:55 PM 51.0°F10.6°C 36.3°F2.4°C 57% 7.0 mph NE11.3 kmh NE 12.0 mph19.3 kmh 30.30 in1026.1 mb 0.00 in0.0 mm 0.00 in/hr0.0 mm/hr 0.00 in0.0 mm
01:00 PM 51.2°F10.7°C 35.1°F1.7°C 54% 5.0 mph N8.0 kmh N 12.0 mph19.3 kmh 30.29 in1025.7 mb 0.00 in0.0 mm 0.00 in/hr0.0 mm/hr 0.00 in0.0 mm
01:05 PM 51.4°F10.8°C 35.3°F1.8°C 54% 11.0 mph NNE17.7 kmh NNE 11.0 mph17.7 kmh 30.29 in1025.7 mb 0.00 in0.0 mm 0.00 in/hr0.0 mm/hr 0.00 in0.0 mm
01:10 PM 51.4°F10.8°C 34.8°F1.6°C 53% 2.0 mph NE3.2 kmh NE 11.0 mph17.7 kmh 30.29 in1025.7 mb 0.00 in0.0 mm 0.00 in/hr0.0 mm/hr 0.00 in0.0 mm
01:15 PM 51.6°F10.9°C 35.5°F1.9°C 54% 8.0 mph NE12.9 kmh NE 10.0 mph16.1 kmh 30.29 in1025.7 mb 0.00 in0.0 mm 0.00 in/hr0.0 mm/hr 0.00 in0.0 mm
01:20 PM 51.7°F10.9°C 35.1°F1.7°C 53% 3.0 mph ENE4.8 kmh ENE 11.0 mph17.7 kmh 30.28 in1025.4 mb 0.00 in0.0 mm 0.00 in/hr0.0 mm/hr 0.00 in0.0 mm
01:25 PM 51.7°F10.9°C 35.5°F1.9°C 54% 6.0 mph NE9.7 kmh NE 11.0 mph17.7 kmh 30.28 in1025.4 mb 0.00 in0.0 mm 0.00 in/hr0.0 mm/hr 0.00 in0.0 mm
01:30 PM 51.7°F10.9°C 35.5°F1.9°C 54% 3.0 mph ESE4.8 kmh ESE 7.0 mph11.3 kmh 30.28 in1025.4 mb 0.00 in0.0 mm 0.00 in/hr0.0 mm/hr 0.00 in0.0 mm
01:35 PM 52.0°F11.1°C 35.8°F2.1°C 54% 2.0 mph NE3.2 kmh NE 10.0 mph16.1 kmh 30.28 in1025.4 mb 0.00 in0.0 mm 0.00 in/hr0.0 mm/hr 0.00 in0.0 mm
01:40 PM 52.3°F11.3°C 35.6°F2.0°C 53% 10.0 mph NNE16.1 kmh NNE 10.0 mph16.1 kmh 30.28 in1025.4 mb 0.00 in0.0 mm 0.00 in/hr0.0 mm/hr 0.00 in0.0 mm
01:45 PM 52.5°F11.4°C 34.8°F1.6°C 51% 2.0 mph N3.2 kmh N 11.0 mph17.7 kmh 30.28 in1025.4 mb 0.00 in0.0 mm 0.00 in/hr0.0 mm/hr 0.00 in0.0 mm
01:50 PM 53.0°F11.7°C 37.7°F3.2°C 56% 7.0 mph NNE11.3 kmh NNE 10.0 mph16.1 kmh 30.27 in1025.1 mb 0.00 in0.0 mm 0.00 in/hr0.0 mm/hr 0.00 in0.0 mm
01:55 PM 53.2°F11.8°C 36.0°F2.2°C 52% 9.0 mph NE14.5 kmh NE 13.0 mph20.9 kmh 30.27 in1025.1 mb 0.00 in0.0 mm 0.00 in/hr0.0 mm/hr 0.00 in0.0 mm
02:00 PM 53.0°F11.7°C 36.8°F2.7°C 54% 15.0 mph N24.1 kmh N 14.0 mph22.5 kmh 30.27 in1025.1 mb 0.00 in0.0 mm 0.00 in/hr0.0 mm/hr 0.00 in0.0 mm
02:05 PM 53.3°F11.8°C 36.6°F2.6°C 53% 10.0 mph 16.1 kmh 15.0 mph24.1 kmh 30.27 in1025.1 mb 0.00 in0.0 mm 0.00 in/hr0.0 mm/hr 0.00 in0.0 mm
02:10 PM 53.1°F11.7°C 36.4°F2.4°C 53% 10.0 mph N16.1 kmh N 16.0 mph25.7 kmh 30.27 in1025.1 mb 0.00 in0.0 mm 0.00 in/hr0.0 mm/hr 0.00 in0.0 mm
02:15 PM 52.8°F11.6°C 36.6°F2.6°C 54% 10.0 mph N16.1 kmh N 10.0 mph16.1 kmh 30.27 in1025.1 mb 0.00 in0.0 mm 0.00 in/hr0.0 mm/hr 0.00 in0.0 mm
02:20 PM 53.2°F11.8°C 36.9°F2.7°C 54% 9.0 mph NE14.5 kmh NE 12.0 mph19.3 kmh 30.27 in1025.1 mb 0.00 in0.0 mm 0.00 in/hr0.0 mm/hr 0.00 in0.0 mm
02:25 PM 53.6°F12.0°C 37.3°F2.9°C 54% 3.0 mph NE4.8 kmh NE 11.0 mph17.7 kmh 30.27 in1025.1 mb 0.00 in0.0 mm 0.00 in/hr0.0 mm/hr 0.00 in0.0 mm
02:30 PM 54.1°F12.3°C 37.8°F3.2°C 54% 7.0 mph NNE11.3 kmh NNE 11.0 mph17.7 kmh 30.26 in1024.7 mb 0.00 in0.0 mm 0.00 in/hr0.0 mm/hr 0.00 in0.0 mm
02:35 PM 54.2°F12.3°C 35.4°F1.9°C 49% 6.0 mph NE9.7 kmh NE 11.0 mph17.7 kmh 30.26 in1024.7 mb 0.00 in0.0 mm 0.00 in/hr0.0 mm/hr 0.00 in0.0 mm
02:40 PM 54.4°F12.4°C 35.6°F2.0°C 49% 9.0 mph NE14.5 kmh NE 12.0 mph19.3 kmh 30.26 in1024.7 mb 0.00 in0.0 mm 0.00 in/hr0.0 mm/hr 0.00 in0.0 mm
02:45 PM 53.9°F12.2°C 33.6°F0.9°C 46% 6.0 mph NNE9.7 kmh NNE 13.0 mph20.9 kmh 30.26 in1024.7 mb 0.00 in0.0 mm 0.00 in/hr0.0 mm/hr 0.00 in0.0 mm
02:50 PM 53.9°F12.2°C 33.6°F0.9°C 46% 5.0 mph NE8.0 kmh NE 10.0 mph16.1 kmh 30.25 in1024.4 mb 0.00 in0.0 mm 0.00 in/hr0.0 mm/hr 0.00 in0.0 mm
02:55 PM 53.9°F12.2°C 34.1°F1.2°C 47% 4.0 mph NE6.4 kmh NE 11.0 mph17.7 kmh 30.25 in1024.4 mb 0.00 in0.0 mm 0.00 in/hr0.0 mm/hr 0.00 in0.0 mm
03:00 PM 54.0°F12.2°C 33.6°F0.9°C 46% 6.0 mph E9.7 kmh E 10.0 mph16.1 kmh 30.25 in1024.4 mb 0.00 in0.0 mm 0.00 in/hr0.0 mm/hr 0.00 in0.0 mm
03:05 PM 54.3°F12.4°C 33.4°F0.8°C 45% 5.0 mph NE8.0 kmh NE 10.0 mph16.1 kmh 30.25 in1024.4 mb 0.00 in0.0 mm 0.00 in/hr0.0 mm/hr 0.00 in0.0 mm
03:10 PM 54.6°F12.6°C 35.3°F1.8°C 48% 7.0 mph NE11.3 kmh NE 11.0 mph17.7 kmh 30.25 in1024.4 mb 0.00 in0.0 mm 0.00 in/hr0.0 mm/hr 0.00 in0.0 mm
03:15 PM 55.0°F12.8°C 34.6°F1.4°C 46% Calm Calm 7.0 mph11.3 kmh 30.25 in1024.4 mb 0.00 in0.0 mm 0.00 in/hr0.0 mm/hr 0.00 in0.0 mm
03:20 PM 55.3°F12.9°C 34.3°F1.3°C 45% 4.0 mph NNE6.4 kmh NNE 13.0 mph20.9 kmh 30.25 in1024.4 mb 0.00 in0.0 mm 0.00 in/hr0.0 mm/hr 0.00 in0.0 mm
03:25 PM 55.0°F12.8°C 34.6°F1.4°C 46% 6.0 mph ENE9.7 kmh ENE 11.0 mph17.7 kmh 30.24 in1024.0 mb 0.00 in0.0 mm 0.00 in/hr0.0 mm/hr 0.00 in0.0 mm
03:30 PM 54.9°F12.7°C 35.0°F1.7°C 47% 5.0 mph NNE8.0 kmh NNE 10.0 mph16.1 kmh 30.25 in1024.4 mb 0.00 in0.0 mm 0.00 in/hr0.0 mm/hr 0.00 in0.0 mm
03:35 PM 54.2°F12.3°C 33.8°F1.0°C 46% 10.0 mph NE16.1 kmh NE 12.0 mph19.3 kmh 30.25 in1024.4 mb 0.00 in0.0 mm 0.00 in/hr0.0 mm/hr 0.00 in0.0 mm
03:40 PM 53.4°F11.9°C 34.7°F1.5°C 49% 3.0 mph NNE4.8 kmh NNE 11.0 mph17.7 kmh 30.25 in1024.4 mb 0.00 in0.0 mm 0.00 in/hr0.0 mm/hr 0.00 in0.0 mm
03:45 PM 53.3°F11.8°C 38.0°F3.3°C 56% Calm Calm 4.0 mph6.4 kmh 30.24 in1024.0 mb 0.00 in0.0 mm 0.00 in/hr0.0 mm/hr 0.00 in0.0 mm
03:50 PM 53.5°F11.9°C 35.3°F1.8°C 50% Calm Calm 3.0 mph4.8 kmh 30.24 in1024.0 mb 0.00 in0.0 mm 0.00 in/hr0.0 mm/hr 0.00 in0.0 mm
03:55 PM 53.9°F12.2°C 33.0°F0.6°C 45% Calm Calm 5.0 mph8.0 kmh 30.24 in1024.0 mb 0.00 in0.0 mm 0.00 in/hr0.0 mm/hr 0.00 in0.0 mm
04:00 PM 55.0°F12.8°C 32.9°F0.5°C 43% 4.0 mph NW6.4 kmh NW 7.0 mph11.3 kmh 30.24 in1024.0 mb 0.00 in0.0 mm 0.00 in/hr0.0 mm/hr 0.00 in0.0 mm
04:05 PM 55.7°F13.2°C 35.2°F1.8°C 46% 3.0 mph NW4.8 kmh NW 7.0 mph11.3 kmh 30.24 in1024.0 mb 0.00 in0.0 mm 0.00 in/hr0.0 mm/hr 0.00 in0.0 mm
04:10 PM 56.2°F13.4°C 34.5°F1.4°C 44% 1.0 mph NNE1.6 kmh NNE 11.0 mph17.7 kmh 30.24 in1024.0 mb 0.00 in0.0 mm 0.00 in/hr0.0 mm/hr 0.00 in0.0 mm
04:15 PM 56.1°F13.4°C 35.0°F1.7°C 45% 4.0 mph WSW6.4 kmh WSW 7.0 mph11.3 kmh 30.24 in1024.0 mb 0.00 in0.0 mm 0.00 in/hr0.0 mm/hr 0.00 in0.0 mm
04:20 PM 56.2°F13.4°C 34.5°F1.4°C 44% 5.0 mph NE8.0 kmh NE 10.0 mph16.1 kmh 30.24 in1024.0 mb 0.00 in0.0 mm 0.00 in/hr0.0 mm/hr 0.00 in0.0 mm
04:25 PM 55.6°F13.1°C 35.1°F1.7°C 46% Calm Calm 9.0 mph14.5 kmh 30.24 in1024.0 mb 0.00 in0.0 mm 0.00 in/hr0.0 mm/hr 0.00 in0.0 mm
04:30 PM 54.6°F12.6°C 34.2°F1.2°C 46% 6.0 mph NNE9.7 kmh NNE 10.0 mph16.1 kmh 30.24 in1024.0 mb 0.00 in0.0 mm 0.00 in/hr0.0 mm/hr 0.00 in0.0 mm
04:35 PM 53.7°F12.1°C 33.9°F1.1°C 47% 6.0 mph NE9.7 kmh NE 7.0 mph11.3 kmh 30.24 in1024.0 mb 0.00 in0.0 mm 0.00 in/hr0.0 mm/hr 0.00 in0.0 mm
04:40 PM 53.3°F11.8°C 33.5°F0.8°C 47% 7.0 mph NNE11.3 kmh NNE 6.0 mph9.7 kmh 30.24 in1024.0 mb 0.00 in0.0 mm 0.00 in/hr0.0 mm/hr 0.00 in0.0 mm
04:45 PM 52.8°F11.6°C 33.1°F0.6°C 47% 4.0 mph E6.4 kmh E 7.0 mph11.3 kmh 30.24 in1024.0 mb 0.00 in0.0 mm 0.00 in/hr0.0 mm/hr 0.00 in0.0 mm
04:50 PM 52.5°F11.4°C 32.8°F0.4°C 47% 5.0 mph NE8.0 kmh NE 7.0 mph11.3 kmh 30.24 in1024.0 mb 0.00 in0.0 mm 0.00 in/hr0.0 mm/hr 0.00 in0.0 mm
04:55 PM 52.4°F11.3°C 32.7°F0.4°C 47% 6.0 mph NE9.7 kmh NE 7.0 mph11.3 kmh 30.24 in1024.0 mb 0.00 in0.0 mm 0.00 in/hr0.0 mm/hr 0.00 in0.0 mm
05:00 PM 52.2°F11.2°C 32.5°F0.3°C 47% 5.0 mph NE8.0 kmh NE 10.0 mph16.1 kmh 30.24 in1024.0 mb 0.00 in0.0 mm 0.00 in/hr0.0 mm/hr 0.00 in0.0 mm
05:05 PM 52.0°F11.1°C 32.9°F0.5°C 48% 3.0 mph NE4.8 kmh NE 10.0 mph16.1 kmh 30.24 in1024.0 mb 0.00 in0.0 mm 0.00 in/hr0.0 mm/hr 0.00 in0.0 mm
05:10 PM 51.9°F11.1°C 33.3°F0.7°C 49% 2.0 mph NE3.2 kmh NE 6.0 mph9.7 kmh 30.24 in1024.0 mb 0.00 in0.0 mm 0.00 in/hr0.0 mm/hr 0.00 in0.0 mm
05:15 PM 51.9°F11.1°C 32.8°F0.4°C 48% 4.0 mph NE6.4 kmh NE 6.0 mph9.7 kmh 30.24 in1024.0 mb 0.00 in0.0 mm 0.00 in/hr0.0 mm/hr 0.00 in0.0 mm
05:20 PM 51.9°F11.1°C 32.3°F0.2°C 47% 3.0 mph NE4.8 kmh NE 6.0 mph9.7 kmh 30.24 in1024.0 mb 0.00 in0.0 mm 0.00 in/hr0.0 mm/hr 0.00 in0.0 mm
05:25 PM 52.0°F11.1°C 32.4°F0.2°C 47% 5.0 mph NE8.0 kmh NE 13.0 mph20.9 kmh 30.24 in1024.0 mb 0.00 in0.0 mm 0.00 in/hr0.0 mm/hr 0.00 in0.0 mm
05:30 PM 51.7°F10.9°C 32.6°F0.3°C 48% 6.0 mph NE9.7 kmh NE 12.0 mph19.3 kmh 30.24 in1024.0 mb 0.00 in0.0 mm 0.00 in/hr0.0 mm/hr 0.00 in0.0 mm
05:35 PM 51.7°F10.9°C 32.1°F0.1°C 47% 6.0 mph NE9.7 kmh NE 12.0 mph19.3 kmh 30.24 in1024.0 mb 0.00 in0.0 mm 0.00 in/hr0.0 mm/hr 0.00 in0.0 mm
05:40 PM 51.9°F11.1°C 31.7°F-0.2°C 46% 5.0 mph ENE8.0 kmh ENE 12.0 mph19.3 kmh 30.23 in1023.7 mb 0.00 in0.0 mm 0.00 in/hr0.0 mm/hr 0.00 in0.0 mm
05:45 PM 52.2°F11.2°C 31.5°F-0.3°C 45% 4.0 mph NE6.4 kmh NE 11.0 mph17.7 kmh 30.23 in1023.7 mb 0.00 in0.0 mm 0.00 in/hr0.0 mm/hr 0.00 in0.0 mm
05:55 PM 52.6°F11.4°C 31.3°F-0.4°C 44% 6.0 mph NE9.7 kmh NE 9.0 mph14.5 kmh 30.23 in1023.7 mb 0.00 in0.0 mm 0.00 in/hr0.0 mm/hr 0.00 in0.0 mm
06:00 PM 52.6°F11.4°C 31.8°F-0.1°C 45% 6.0 mph ENE9.7 kmh ENE 12.0 mph19.3 kmh 30.23 in1023.7 mb 0.00 in0.0 mm 0.00 in/hr0.0 mm/hr 0.00 in0.0 mm
06:05 PM 52.5°F11.4°C 32.3°F0.2°C 46% 7.0 mph NE11.3 kmh NE 9.0 mph14.5 kmh 30.23 in1023.7 mb 0.00 in0.0 mm 0.00 in/hr0.0 mm/hr 0.00 in0.0 mm
06:10 PM 52.4°F11.3°C 32.2°F0.1°C 46% 3.0 mph NE4.8 kmh NE 10.0 mph16.1 kmh 30.23 in1023.7 mb 0.00 in0.0 mm 0.00 in/hr0.0 mm/hr 0.00 in0.0 mm
06:15 PM 52.3°F11.3°C 31.0°F-0.6°C 44% 5.0 mph NE8.0 kmh NE 12.0 mph19.3 kmh 30.23 in1023.7 mb 0.00 in0.0 mm 0.00 in/hr0.0 mm/hr 0.00 in0.0 mm
06:20 PM 52.0°F11.1°C 32.4°F0.2°C 47% 4.0 mph NE6.4 kmh NE 10.0 mph16.1 kmh 30.23 in1023.7 mb 0.00 in0.0 mm 0.00 in/hr0.0 mm/hr 0.00 in0.0 mm
06:25 PM 51.9°F11.1°C 30.6°F-0.8°C 44% 7.0 mph NE11.3 kmh NE 11.0 mph17.7 kmh 30.23 in1023.7 mb 0.00 in0.0 mm 0.00 in/hr0.0 mm/hr 0.00 in0.0 mm
06:30 PM 51.8°F11.0°C 31.1°F-0.5°C 45% 4.0 mph NE6.4 kmh NE 7.0 mph11.3 kmh 30.24 in1024.0 mb 0.00 in0.0 mm 0.00 in/hr0.0 mm/hr 0.00 in0.0 mm
06:35 PM 51.6°F10.9°C 32.0°F0.0°C 47% 3.0 mph NNE4.8 kmh NNE 10.0 mph16.1 kmh 30.24 in1024.0 mb 0.00 in0.0 mm 0.00 in/hr0.0 mm/hr 0.00 in0.0 mm
06:40 PM 51.4°F10.8°C 31.8°F-0.1°C 47% 5.0 mph E8.0 kmh E 7.0 mph11.3 kmh 30.23 in1023.7 mb 0.00 in0.0 mm 0.00 in/hr0.0 mm/hr 0.00 in0.0 mm
06:45 PM 51.3°F10.7°C 31.2°F-0.4°C 46% 2.0 mph NE3.2 kmh NE 10.0 mph16.1 kmh 30.23 in1023.7 mb 0.00 in0.0 mm 0.00 in/hr0.0 mm/hr 0.00 in0.0 mm
06:50 PM 51.1°F10.6°C 31.5°F-0.3°C 47% 4.0 mph NE6.4 kmh NE 6.0 mph9.7 kmh 30.23 in1023.7 mb 0.00 in0.0 mm 0.00 in/hr0.0 mm/hr 0.00 in0.0 mm
06:55 PM 50.9°F10.5°C 31.9°F-0.1°C 48% 4.0 mph NE6.4 kmh NE 7.0 mph11.3 kmh 30.23 in1023.7 mb 0.00 in0.0 mm 0.00 in/hr0.0 mm/hr 0.00 in0.0 mm
07:00 PM 50.7°F10.4°C 32.2°F0.1°C 49% 2.0 mph NE3.2 kmh NE 5.0 mph8.0 kmh 30.23 in1023.7 mb 0.00 in0.0 mm 0.00 in/hr0.0 mm/hr 0.00 in0.0 mm
07:05 PM 50.6°F10.3°C 32.1°F0.1°C 49% 1.0 mph NE1.6 kmh NE 4.0 mph6.4 kmh 30.23 in1023.7 mb 0.00 in0.0 mm 0.00 in/hr0.0 mm/hr 0.00 in0.0 mm
07:10 PM 50.4°F10.2°C 31.9°F-0.1°C 49% 2.0 mph NE3.2 kmh NE 6.0 mph9.7 kmh 30.23 in1023.7 mb 0.00 in0.0 mm 0.00 in/hr0.0 mm/hr 0.00 in0.0 mm
07:15 PM 50.1°F10.1°C 32.1°F0.1°C 50% Calm Calm 4.0 mph6.4 kmh 30.23 in1023.7 mb 0.00 in0.0 mm 0.00 in/hr0.0 mm/hr 0.00 in0.0 mm
07:20 PM 49.9°F9.9°C 32.9°F0.5°C 52% Calm Calm 4.0 mph6.4 kmh 30.23 in1023.7 mb 0.00 in0.0 mm 0.00 in/hr0.0 mm/hr 0.00 in0.0 mm
07:25 PM 49.6°F9.8°C 33.6°F0.9°C 54% 1.0 mph NE1.6 kmh NE 4.0 mph6.4 kmh 30.23 in1023.7 mb 0.00 in0.0 mm 0.00 in/hr0.0 mm/hr 0.00 in0.0 mm
07:30 PM 49.2°F9.6°C 33.7°F0.9°C 55% 3.0 mph NNE4.8 kmh NNE 6.0 mph9.7 kmh 30.23 in1023.7 mb 0.00 in0.0 mm 0.00 in/hr0.0 mm/hr 0.00 in0.0 mm
07:36 PM 48.9°F9.4°C 33.4°F0.8°C 55% 3.0 mph NNE4.8 kmh NNE 4.0 mph6.4 kmh 30.23 in1023.7 mb 0.00 in0.0 mm 0.00 in/hr0.0 mm/hr 0.00 in0.0 mm
07:40 PM 48.5°F9.2°C 32.6°F0.3°C 54% 2.0 mph N3.2 kmh N 5.0 mph8.0 kmh 30.23 in1023.7 mb 0.00 in0.0 mm 0.00 in/hr0.0 mm/hr 0.00 in0.0 mm
07:46 PM 48.3°F9.1°C 32.4°F0.2°C 54% 4.0 mph NNE6.4 kmh NNE 5.0 mph8.0 kmh 30.24 in1024.0 mb 0.00 in0.0 mm 0.00 in/hr0.0 mm/hr 0.00 in0.0 mm
07:50 PM 47.9°F8.8°C 32.5°F0.3°C 55% 2.0 mph NNE3.2 kmh NNE 5.0 mph8.0 kmh 30.24 in1024.0 mb 0.00 in0.0 mm 0.00 in/hr0.0 mm/hr 0.00 in0.0 mm
07:55 PM 47.7°F8.7°C 32.7°F0.4°C 56% 2.0 mph NNE3.2 kmh NNE 4.0 mph6.4 kmh 30.24 in1024.0 mb 0.00 in0.0 mm 0.00 in/hr0.0 mm/hr 0.00 in0.0 mm
08:00 PM 47.4°F8.6°C 32.5°F0.3°C 56% Calm Calm 3.0 mph4.8 kmh 30.24 in1024.0 mb 0.00 in0.0 mm 0.00 in/hr0.0 mm/hr 0.00 in0.0 mm
08:05 PM 47.1°F8.4°C 33.0°F0.6°C 58% Calm Calm 3.0 mph4.8 kmh 30.24 in1024.0 mb 0.00 in0.0 mm 0.00 in/hr0.0 mm/hr 0.00 in0.0 mm
08:10 PM 46.8°F8.2°C 32.8°F0.4°C 58% 3.0 mph NE4.8 kmh NE 3.0 mph4.8 kmh 30.24 in1024.0 mb 0.00 in0.0 mm 0.00 in/hr0.0 mm/hr 0.00 in0.0 mm
08:15 PM 46.6°F8.1°C 33.0°F0.6°C 59% Calm Calm 3.0 mph4.8 kmh 30.24 in1024.0 mb 0.00 in0.0 mm 0.00 in/hr0.0 mm/hr 0.00 in0.0 mm
08:20 PM 46.4°F8.0°C 33.6°F0.9°C 61% 1.0 mph NE1.6 kmh NE 5.0 mph8.0 kmh 30.24 in1024.0 mb 0.00 in0.0 mm 0.00 in/hr0.0 mm/hr 0.00 in0.0 mm
08:25 PM 46.1°F7.8°C 33.4°F0.8°C 61% 1.0 mph NE1.6 kmh NE 5.0 mph8.0 kmh 30.25 in1024.4 mb 0.00 in0.0 mm 0.00 in/hr0.0 mm/hr 0.00 in0.0 mm
08:30 PM 46.0°F7.8°C 33.3°F0.7°C 61% 3.0 mph NE4.8 kmh NE 4.0 mph6.4 kmh 30.24 in1024.0 mb 0.00 in0.0 mm 0.00 in/hr0.0 mm/hr 0.00 in0.0 mm
08:35 PM 45.9°F7.7°C 33.2°F0.7°C 61% 1.0 mph NE1.6 kmh NE 3.0 mph4.8 kmh 30.24 in1024.0 mb 0.00 in0.0 mm 0.00 in/hr0.0 mm/hr 0.00 in0.0 mm
08:40 PM 45.7°F7.6°C 33.8°F1.0°C 63% Calm Calm 3.0 mph4.8 kmh 30.25 in1024.4 mb 0.00 in0.0 mm 0.00 in/hr0.0 mm/hr 0.00 in0.0 mm
08:45 PM 45.2°F7.3°C 34.1°F1.2°C 65% 1.0 mph NE1.6 kmh NE 2.0 mph3.2 kmh 30.25 in1024.4 mb 0.00 in0.0 mm 0.00 in/hr0.0 mm/hr 0.00 in0.0 mm
08:50 PM 44.9°F7.2°C 34.6°F1.4°C 67% Calm Calm 2.0 mph3.2 kmh 30.25 in1024.4 mb 0.00 in0.0 mm 0.00 in/hr0.0 mm/hr 0.00 in0.0 mm
08:55 PM 44.5°F6.9°C 34.6°F1.4°C 68% 1.0 mph NE1.6 kmh NE 3.0 mph4.8 kmh 30.25 in1024.4 mb 0.00 in0.0 mm 0.00 in/hr0.0 mm/hr 0.00 in0.0 mm
09:00 PM 44.3°F6.8°C 34.4°F1.3°C 68% Calm Calm 2.0 mph3.2 kmh 30.25 in1024.4 mb 0.00 in0.0 mm 0.00 in/hr0.0 mm/hr 0.00 in0.0 mm
09:05 PM 44.2°F6.8°C 34.3°F1.3°C 68% Calm Calm 2.0 mph3.2 kmh 30.24 in1024.0 mb 0.00 in0.0 mm 0.00 in/hr0.0 mm/hr 0.00 in0.0 mm
09:10 PM 44.0°F6.7°C 34.1°F1.2°C 68% Calm Calm 1.0 mph1.6 kmh 30.24 in1024.0 mb 0.00 in0.0 mm 0.00 in/hr0.0 mm/hr 0.00 in0.0 mm
09:15 PM 43.8°F6.6°C 34.3°F1.3°C 69% 1.0 mph NE1.6 kmh NE 4.0 mph6.4 kmh 30.24 in1024.0 mb 0.00 in0.0 mm 0.00 in/hr0.0 mm/hr 0.00 in0.0 mm
09:20 PM 43.8°F6.6°C 34.3°F1.3°C 69% Calm Calm 5.0 mph8.0 kmh 30.24 in1024.0 mb 0.00 in0.0 mm 0.00 in/hr0.0 mm/hr 0.00 in0.0 mm
09:25 PM 43.7°F6.5°C 34.2°F1.2°C 69% 1.0 mph NE1.6 kmh NE 3.0 mph4.8 kmh 30.24 in1024.0 mb 0.00 in0.0 mm 0.00 in/hr0.0 mm/hr 0.00 in0.0 mm
09:30 PM 43.6°F6.4°C 34.1°F1.2°C 69% 2.0 mph NE3.2 kmh NE 4.0 mph6.4 kmh 30.24 in1024.0 mb 0.00 in0.0 mm 0.00 in/hr0.0 mm/hr 0.00 in0.0 mm
09:35 PM 43.4°F6.3°C 33.9°F1.1°C 69% 3.0 mph NE4.8 kmh NE 6.0 mph9.7 kmh 30.25 in1024.4 mb 0.00 in0.0 mm 0.00 in/hr0.0 mm/hr 0.00 in0.0 mm
09:40 PM 43.3°F6.3°C 33.8°F1.0°C 69% 2.0 mph ENE3.2 kmh ENE 5.0 mph8.0 kmh 30.25 in1024.4 mb 0.00 in0.0 mm 0.00 in/hr0.0 mm/hr 0.00 in0.0 mm
09:45 PM 43.1°F6.2°C 33.9°F1.1°C 70% 2.0 mph ENE3.2 kmh ENE 5.0 mph8.0 kmh 30.25 in1024.4 mb 0.00 in0.0 mm 0.00 in/hr0.0 mm/hr 0.00 in0.0 mm
09:50 PM 42.9°F6.1°C 33.7°F0.9°C 70% 2.0 mph NE3.2 kmh NE 4.0 mph6.4 kmh 30.25 in1024.4 mb 0.00 in0.0 mm 0.00 in/hr0.0 mm/hr 0.00 in0.0 mm
09:55 PM 42.6°F5.9°C 33.5°F0.8°C 70% 3.0 mph ENE4.8 kmh ENE 5.0 mph8.0 kmh 30.25 in1024.4 mb 0.00 in0.0 mm 0.00 in/hr0.0 mm/hr 0.00 in0.0 mm
10:00 PM 42.4°F5.8°C 33.6°F0.9°C 71% 3.0 mph ENE4.8 kmh ENE 4.0 mph6.4 kmh 30.25 in1024.4 mb 0.00 in0.0 mm 0.00 in/hr0.0 mm/hr 0.00 in0.0 mm
10:05 PM 42.1°F5.6°C 33.7°F0.9°C 72% Calm Calm 3.0 mph4.8 kmh 30.24 in1024.0 mb 0.00 in0.0 mm 0.00 in/hr0.0 mm/hr 0.00 in0.0 mm
10:10 PM 41.8°F5.4°C 33.4°F0.8°C 72% Calm Calm 3.0 mph4.8 kmh 30.24 in1024.0 mb 0.00 in0.0 mm 0.00 in/hr0.0 mm/hr 0.00 in0.0 mm
10:15 PM 41.6°F5.3°C 33.2°F0.7°C 72% 2.0 mph ENE3.2 kmh ENE 3.0 mph4.8 kmh 30.24 in1024.0 mb 0.00 in0.0 mm 0.00 in/hr0.0 mm/hr 0.00 in0.0 mm
10:20 PM 41.5°F5.3°C 33.1°F0.6°C 72% 1.0 mph ENE1.6 kmh ENE 4.0 mph6.4 kmh 30.24 in1024.0 mb 0.00 in0.0 mm 0.00 in/hr0.0 mm/hr 0.00 in0.0 mm
10:25 PM 41.4°F5.2°C 33.4°F0.8°C 73% 4.0 mph ENE6.4 kmh ENE 4.0 mph6.4 kmh 30.24 in1024.0 mb 0.00 in0.0 mm 0.00 in/hr0.0 mm/hr 0.00 in0.0 mm
10:30 PM 41.3°F5.2°C 32.9°F0.5°C 72% 3.0 mph NE4.8 kmh NE 4.0 mph6.4 kmh 30.24 in1024.0 mb 0.00 in0.0 mm 0.00 in/hr0.0 mm/hr 0.00 in0.0 mm
10:35 PM 41.2°F5.1°C 33.2°F0.7°C 73% 4.0 mph ENE6.4 kmh ENE 5.0 mph8.0 kmh 30.24 in1024.0 mb 0.00 in0.0 mm 0.00 in/hr0.0 mm/hr 0.00 in0.0 mm
10:40 PM 41.0°F5.0°C 33.0°F0.6°C 73% 2.0 mph ENE3.2 kmh ENE 4.0 mph6.4 kmh 30.24 in1024.0 mb 0.00 in0.0 mm 0.00 in/hr0.0 mm/hr 0.00 in0.0 mm
10:45 PM 40.8°F4.9°C 33.1°F0.6°C 74% 4.0 mph ENE6.4 kmh ENE 5.0 mph8.0 kmh 30.24 in1024.0 mb 0.00 in0.0 mm 0.00 in/hr0.0 mm/hr 0.00 in0.0 mm
10:50 PM 40.6°F4.8°C 32.9°F0.5°C 74% 3.0 mph ENE4.8 kmh ENE 5.0 mph8.0 kmh 30.24 in1024.0 mb 0.00 in0.0 mm 0.00 in/hr0.0 mm/hr 0.00 in0.0 mm
10:55 PM 40.6°F4.8°C 32.6°F0.3°C 73% 3.0 mph E4.8 kmh E 6.0 mph9.7 kmh 30.24 in1024.0 mb 0.00 in0.0 mm 0.00 in/hr0.0 mm/hr 0.00 in0.0 mm
11:00 PM 40.6°F4.8°C 32.6°F0.3°C 73% Calm Calm 6.0 mph9.7 kmh 30.24 in1024.0 mb 0.00 in0.0 mm 0.00 in/hr0.0 mm/hr 0.00 in0.0 mm
11:05 PM 40.6°F4.8°C 32.6°F0.3°C 73% 2.0 mph NE3.2 kmh NE 5.0 mph8.0 kmh 30.23 in1023.7 mb 0.00 in0.0 mm 0.00 in/hr0.0 mm/hr 0.00 in0.0 mm
11:10 PM 40.5°F4.7°C 32.5°F0.3°C 73% 1.0 mph NE1.6 kmh NE 4.0 mph6.4 kmh 30.23 in1023.7 mb 0.00 in0.0 mm 0.00 in/hr0.0 mm/hr 0.00 in0.0 mm
11:15 PM 40.3°F4.6°C 32.3°F0.2°C 73% 4.0 mph NE6.4 kmh NE 5.0 mph8.0 kmh 30.24 in1024.0 mb 0.00 in0.0 mm 0.00 in/hr0.0 mm/hr 0.00 in0.0 mm
11:20 PM 40.2°F4.6°C 32.5°F0.3°C 74% Calm Calm 3.0 mph4.8 kmh 30.24 in1024.0 mb 0.00 in0.0 mm 0.00 in/hr0.0 mm/hr 0.00 in0.0 mm
11:25 PM 40.0°F4.4°C 32.3°F0.2°C 74% 4.0 mph NE6.4 kmh NE 4.0 mph6.4 kmh 30.24 in1024.0 mb 0.00 in0.0 mm 0.00 in/hr0.0 mm/hr 0.00 in0.0 mm
11:30 PM 40.0°F4.4°C 32.3°F0.2°C 74% 1.0 mph NE1.6 kmh NE 4.0 mph6.4 kmh 30.23 in1023.7 mb 0.00 in0.0 mm 0.00 in/hr0.0 mm/hr 0.00 in0.0 mm
11:35 PM 39.9°F4.4°C 32.2°F0.1°C 74% 1.0 mph NE1.6 kmh NE 3.0 mph4.8 kmh 30.23 in1023.7 mb 0.00 in0.0 mm 0.00 in/hr0.0 mm/hr 0.00 in0.0 mm
11:40 PM 39.9°F4.4°C 32.2°F0.1°C 74% Calm Calm 4.0 mph6.4 kmh 30.23 in1023.7 mb 0.00 in0.0 mm 0.00 in/hr0.0 mm/hr 0.00 in0.0 mm
11:45 PM 39.7°F4.3°C 32.4°F0.2°C 75% 1.0 mph NE1.6 kmh NE 3.0 mph4.8 kmh 30.23 in1023.7 mb 0.00 in0.0 mm 0.00 in/hr0.0 mm/hr 0.00 in0.0 mm
11:50 PM 39.5°F4.2°C 32.2°F0.1°C 75% 1.0 mph NE1.6 kmh NE 3.0 mph4.8 kmh 30.23 in1023.7 mb 0.00 in0.0 mm 0.00 in/hr0.0 mm/hr 0.00 in0.0 mm
11:55 PM 39.3°F4.1°C 32.3°F0.2°C 76% Calm Calm 3.0 mph4.8 kmh 30.23 in1023.7 mb 0.00 in0.0 mm 0.00 in/hr0.0 mm/hr 0.00 in0.0 mm